Time;durP1;ratioP1;P1;durP2;ratioP2;P2;SDS_P1;SDS_P2;PMS_P1;PMS_P2;Temp;Humidity;BMP_temperature;BMP_pressure;BME280_temperature;BME280_humidity;BME280_pressure;Samples;Min_cycle;Max_cycle;Signal;HPM_P1;HPM_P2
2023/01/01 00:00:57;;;;;;;26.30;13.48;;;15.30;99.90;;;;;;5013484;28;20029;-32
2023/01/01 00:03:22;;;;;;;33.30;15.05;;;15.30;99.90;;;;;;5011763;28;20021;-48
2023/01/01 00:05:48;;;;;;;68.72;26.27;;;15.30;99.90;;;;;;5014353;28;20375;-36
2023/01/01 00:08:14;;;;;;;54.45;24.17;;;15.20;99.90;;;;;;5014491;28;20034;-36
2023/01/01 00:10:39;;;;;;;33.28;12.05;;;15.20;99.90;;;;;;5013332;28;20030;-40
2023/01/01 00:13:06;;;;;;;24.90;12.30;;;15.20;99.90;;;;;;5010543;28;20034;-35
2023/01/01 00:15:32;;;;;;;42.83;21.13;;;15.20;99.90;;;;;;5003867;28;20045;-37
2023/01/01 00:17:58;;;;;;;29.60;14.35;;;15.20;99.90;;;;;;5011588;28;20030;-38
2023/01/01 00:20:24;;;;;;;23.05;10.75;;;15.20;99.90;;;;;;5013470;28;20025;-40
2023/01/01 00:22:50;;;;;;;28.20;11.02;;;15.20;99.90;;;;;;5009597;28;20030;-39
2023/01/01 00:25:17;;;;;;;32.67;9.43;;;15.10;99.90;;;;;;5014153;28;20556;-38
2023/01/01 00:27:42;;;;;;;16.65;8.65;;;15.10;99.90;;;;;;5012340;28;20160;-39
2023/01/01 00:30:09;;;;;;;19.33;8.52;;;15.10;99.90;;;;;;5010405;28;20472;-37
2023/01/01 00:32:35;;;;;;;20.03;8.17;;;15.10;99.90;;;;;;5012250;28;20018;-39
2023/01/01 00:35:01;;;;;;;23.27;9.02;;;15.10;99.90;;;;;;5012892;28;20033;-41
2023/01/01 00:37:27;;;;;;;15.05;8.00;;;15.10;99.90;;;;;;5012525;28;20034;-38
2023/01/01 00:39:53;;;;;;;24.25;8.65;;;15.20;99.90;;;;;;5010440;28;20390;-39
2023/01/01 00:42:19;;;;;;;14.63;8.18;;;15.20;99.90;;;;;;5011750;28;20029;-43
2023/01/01 00:44:45;;;;;;;16.98;7.40;;;15.20;99.90;;;;;;5011677;28;20479;-37
2023/01/01 00:47:10;;;;;;;12.48;6.68;;;15.20;99.90;;;;;;5012951;28;20501;-41
2023/01/01 00:49:36;;;;;;;17.60;6.82;;;15.10;99.90;;;;;;5001722;28;20032;-41
2023/01/01 00:52:02;;;;;;;17.17;6.97;;;15.10;99.90;;;;;;5011053;28;20034;-38
2023/01/01 00:54:27;;;;;;;21.98;5.82;;;15.20;99.90;;;;;;5013006;28;20041;-38
2023/01/01 00:56:54;;;;;;;15.55;5.03;;;15.10;99.90;;;;;;5011062;28;20581;-43
2023/01/01 00:59:20;;;;;;;15.98;4.95;;;15.10;99.90;;;;;;5010743;28;20132;-37
2023/01/01 01:01:46;;;;;;;16.17;4.85;;;15.10;99.90;;;;;;5012675;28;20478;-35
2023/01/01 01:04:11;;;;;;;20.73;5.60;;;15.10;99.90;;;;;;5008637;28;20030;-43
2023/01/01 01:06:37;;;;;;;16.58;4.68;;;15.20;99.90;;;;;;5010150;28;20474;-38
2023/01/01 01:09:03;;;;;;;7.95;4.63;;;15.20;99.90;;;;;;5010418;28;20021;-40
2023/01/01 01:11:29;;;;;;;21.13;4.00;;;15.20;99.90;;;;;;5008452;28;20021;-40
2023/01/01 01:13:56;;;;;;;17.45;5.03;;;15.20;99.90;;;;;;5011637;28;20148;-33
2023/01/01 01:16:40;;;;;;;10.23;3.17;;;15.20;99.90;;;;;;5012141;28;20038;-38
2023/01/01 01:19:08;;;;;;;15.18;3.60;;;15.10;99.90;;;;;;5008470;28;20803;-38
2023/01/01 01:21:34;;;;;;;;;;;15.20;99.90;;;;;;5012070;28;20359;-39
2023/01/01 01:24:02;;;;;;;12.05;3.20;;;15.20;99.90;;;;;;5012360;28;20373;-36
2023/01/01 01:26:31;;;;;;;19.65;3.65;;;15.10;99.90;;;;;;5011556;28;20489;-45
2023/01/01 01:28:58;;;;;;;13.27;2.92;;;15.10;99.90;;;;;;5007440;28;20033;-44
2023/01/01 01:31:28;;;;;;;13.73;3.85;;;15.10;99.90;;;;;;5002335;28;20037;-49
2023/01/01 01:33:54;;;;;;;10.93;3.20;;;15.10;99.90;;;;;;5015108;28;20041;-45
2023/01/01 01:36:20;;;;;;;13.95;3.47;;;15.00;99.90;;;;;;5006640;28;20336;-45
2023/01/01 01:38:46;;;;;;;12.38;3.10;;;15.00;99.90;;;;;;5011585;28;20445;-43
2023/01/01 01:41:13;;;;;;;5.35;2.72;;;15.10;99.90;;;;;;5007373;28;20030;-45
2023/01/01 01:43:39;;;;;;;13.70;3.13;;;15.00;99.90;;;;;;5006199;28;20077;-44
2023/01/01 01:46:11;;;;;;;5.15;2.42;;;14.90;99.90;;;;;;5007093;28;20490;-43
2023/01/01 01:48:41;;;;;;;13.90;2.88;;;15.00;99.90;;;;;;5010031;28;20133;-44
2023/01/01 01:51:08;;;;;;;8.35;3.50;;;14.90;99.90;;;;;;5000688;28;20486;-46
2023/01/01 01:53:38;;;;;;;5.72;2.28;;;14.90;99.90;;;;;;5009624;28;20038;-35
2023/01/01 01:56:07;;;;;;;6.72;1.75;;;14.90;99.90;;;;;;5015570;28;20482;-40
2023/01/01 01:58:33;;;;;;;3.80;1.60;;;14.90;99.90;;;;;;5002334;28;20490;-41
2023/01/01 02:00:59;;;;;;;8.48;1.95;;;15.00;99.90;;;;;;5008706;28;20014;-43
2023/01/01 02:03:39;;;;;;;8.68;1.92;;;15.00;99.90;;;;;;5005167;28;20022;-39
2023/01/01 02:06:05;;;;;;;8.35;2.15;;;14.90;99.90;;;;;;5005124;28;20429;-46
2023/01/01 02:08:32;;;;;;;6.25;2.38;;;15.00;99.90;;;;;;5000719;28;20486;-42
2023/01/01 02:10:58;;;;;;;10.18;1.85;;;14.90;99.90;;;;;;5001143;28;20532;-48
2023/01/01 02:13:24;;;;;;;5.68;2.15;;;14.90;99.90;;;;;;5006002;28;20034;-44
2023/01/01 02:16:31;;;;;;;10.18;2.33;;;14.90;99.90;;;;;;5004355;28;20452;-42
2023/01/01 02:18:59;;;;;;;6.75;1.73;;;14.80;99.90;;;;;;4983098;28;20041;-39
2023/01/01 02:21:51;;;;;;;6.25;2.08;;;14.90;99.90;;;;;;5003177;28;20033;-40
2023/01/01 02:25:10;;;;;;;17.20;2.13;;;14.80;99.90;;;;;;4998811;28;20057;-44
2023/01/01 02:27:50;;;;;;;6.32;1.60;;;14.80;99.90;;;;;;4967449;28;20134;-41
2023/01/01 02:30:17;;;;;;;7.43;1.60;;;14.90;99.90;;;;;;5002616;28;20117;-57
2023/01/01 02:32:48;;;;;;;10.25;1.85;;;14.90;99.90;;;;;;5011667;28;20485;-43
2023/01/01 02:35:36;;;;;;;9.00;2.72;;;14.90;99.90;;;;;;5011567;28;20061;-42
2023/01/01 02:38:10;;;;;;;4.30;1.38;;;14.80;99.90;;;;;;5007930;28;20084;-58
2023/01/01 02:40:43;;;;;;;6.97;1.73;;;14.80;99.90;;;;;;5011644;28;20097;-60
2023/01/01 02:43:08;;;;;;;9.98;1.70;;;14.80;99.90;;;;;;5008593;28;20030;-57
2023/01/01 02:45:34;;;;;;;6.43;2.05;;;14.80;99.90;;;;;;5011579;28;20379;-42
2023/01/01 02:48:24;;;;;;;5.50;1.60;;;14.80;99.90;;;;;;5011218;28;20045;-47
2023/01/01 02:50:50;;;;;;;5.95;1.70;;;14.80;99.90;;;;;;5012457;28;20038;-50
2023/01/01 02:53:31;;;;;;;7.78;2.17;;;14.80;99.90;;;;;;5012356;28;20149;-47
2023/01/01 02:56:06;;;;;;;4.07;1.83;;;14.80;99.90;;;;;;5013898;28;20096;-48
2023/01/01 03:01:50;;;;;;;6.40;1.70;;;14.80;99.90;;;;;;4996362;28;20108;-64
2023/01/01 03:04:16;;;;;;;8.85;1.73;;;14.80;99.90;;;;;;5014701;28;20511;-44
2023/01/01 03:06:54;;;;;;;4.75;1.40;;;14.80;99.90;;;;;;5014704;28;20034;-71
2023/01/01 03:09:24;;;;;;;6.72;1.60;;;14.80;99.90;;;;;;5015871;28;20145;-43
2023/01/01 03:11:59;;;;;;;3.67;1.48;;;14.70;99.90;;;;;;5015655;28;20044;-60
2023/01/01 03:14:24;;;;;;;5.20;2.28;;;14.70;99.90;;;;;;5015146;28;20065;-38
2023/01/01 03:17:02;;;;;;;4.95;1.52;;;14.70;99.90;;;;;;5014859;28;20064;-39
2023/01/01 03:19:34;;;;;;;2.17;1.35;;;14.70;99.90;;;;;;5014209;28;20525;-69
2023/01/01 03:22:17;;;;;;;4.20;1.13;;;14.70;99.90;;;;;;5007826;28;20601;-75
2023/01/01 03:24:49;;;;;;;9.05;1.40;;;14.60;99.90;;;;;;5014089;28;20030;-43
2023/01/01 03:27:25;;;;;;;5.18;1.50;;;14.60;99.90;;;;;;5014914;28;20474;-42
2023/01/01 03:29:54;;;;;;;8.13;1.63;;;14.70;99.90;;;;;;5013924;28;20042;-42
2023/01/01 03:32:59;;;;;;;6.35;1.45;;;14.70;99.90;;;;;;5013795;28;20030;-44
2023/01/01 03:35:16;;;;;;;9.45;1.40;;;14.70;99.90;;;;;;5014364;28;20092;-43
2023/01/01 03:37:44;;;;;;;11.10;2.83;;;14.80;99.90;;;;;;5015157;28;20481;-45
2023/01/01 03:40:11;;;;;;;;;;;14.80;99.90;;;;;;5015659;28;20034;-47
2023/01/01 03:42:43;;;;;;;3.15;1.27;;;14.70;99.90;;;;;;5014689;28;20472;-42
2023/01/01 03:45:23;;;;;;;11.00;1.30;;;14.60;99.90;;;;;;5008366;28;20426;-43
2023/01/01 03:47:49;;;;;;;8.80;1.60;;;14.50;99.90;;;;;;5012324;28;20034;-49
2023/01/01 03:50:16;;;;;;;7.18;1.40;;;14.20;99.90;;;;;;5014639;28;20452;-53
2023/01/01 03:53:08;;;;;;;6.77;1.50;;;14.10;99.90;;;;;;5014747;28;20516;-48
2023/01/01 03:55:45;;;;;;;2.35;1.08;;;14.10;99.90;;;;;;5013880;28;20030;-43
2023/01/01 03:58:20;;;;;;;4.50;1.20;;;14.10;99.90;;;;;;5013859;28;20497;-43
2023/01/01 04:01:09;;;;;;;7.82;1.83;;;14.10;99.90;;;;;;5013700;28;20588;-43
2023/01/01 04:03:37;;;;;;;7.78;1.70;;;14.10;99.90;;;;;;5013649;28;20073;-43
2023/01/01 04:06:04;;;;;;;6.30;1.13;;;14.10;99.90;;;;;;5014734;28;20490;-44
2023/01/01 04:08:33;;;;;;;3.67;1.23;;;14.00;99.90;;;;;;5014582;28;20038;-41
2023/01/01 04:12:00;;;;;;;9.23;1.65;;;14.10;99.90;;;;;;5014141;28;20041;-43
2023/01/01 04:13:48;;;;;;;11.07;1.85;;;14.00;99.90;;;;;;5014422;28;20512;-42
2023/01/01 04:16:13;;;;;;;6.75;1.23;;;13.90;99.90;;;;;;5013241;28;20116;-42
2023/01/01 04:18:39;;;;;;;12.57;1.83;;;13.80;99.90;;;;;;5008320;28;20130;-45
2023/01/01 04:21:06;;;;;;;8.45;1.40;;;13.70;99.90;;;;;;5013849;28;20042;-45
2023/01/01 04:23:31;;;;;;;6.15;1.70;;;13.70;99.90;;;;;;5013323;28;20026;-45
2023/01/01 04:25:57;;;;;;;4.35;0.90;;;13.70;99.90;;;;;;5013180;28;20068;-47
2023/01/01 04:28:23;;;;;;;7.15;1.42;;;13.70;99.90;;;;;;5014379;28;20108;-45
2023/01/01 04:30:48;;;;;;;12.93;1.48;;;13.60;99.90;;;;;;5013035;28;21369;-45
2023/01/01 04:33:14;;;;;;;4.53;1.83;;;13.60;99.90;;;;;;5013496;28;20059;-43
2023/01/01 04:35:39;;;;;;;7.00;2.42;;;13.60;99.90;;;;;;5013192;28;20525;-42
2023/01/01 04:38:05;;;;;;;11.10;1.33;;;13.60;99.90;;;;;;5013883;28;20490;-44
2023/01/01 04:40:31;;;;;;;7.55;1.67;;;13.50;99.90;;;;;;5012318;28;20147;-37
2023/01/01 04:42:56;;;;;;;8.45;2.45;;;13.50;99.90;;;;;;5010429;28;20378;-37
2023/01/01 04:45:22;;;;;;;5.45;1.67;;;13.40;99.90;;;;;;5013928;28;20021;-37
2023/01/01 04:47:51;;;;;;;12.48;1.77;;;13.30;99.90;;;;;;5012667;28;20033;-42
2023/01/01 04:50:16;;;;;;;3.30;1.85;;;13.30;99.90;;;;;;5013922;28;20040;-42
2023/01/01 04:52:42;;;;;;;8.88;1.85;;;13.30;99.90;;;;;;5004020;28;20469;-44
2023/01/01 04:55:08;;;;;;;10.68;1.40;;;13.30;99.90;;;;;;5013869;28;20037;-45
2023/01/01 04:57:33;;;;;;;11.85;1.98;;;13.30;99.90;;;;;;5013876;28;20037;-47
2023/01/01 04:59:59;;;;;;;3.22;0.95;;;13.30;99.90;;;;;;5013674;28;20393;-42
2023/01/01 05:02:25;;;;;;;4.20;1.73;;;13.30;99.90;;;;;;5011409;28;20026;-49
2023/01/01 05:04:51;;;;;;;6.00;1.45;;;13.30;99.90;;;;;;5013394;28;20034;-45
2023/01/01 05:07:16;;;;;;;9.90;2.00;;;13.30;99.90;;;;;;5013847;28;20386;-43
2023/01/01 05:09:42;;;;;;;4.68;1.65;;;13.30;99.90;;;;;;5013485;28;20037;-43
2023/01/01 05:12:07;;;;;;;2.95;1.60;;;13.30;99.90;;;;;;5011917;28;20076;-42
2023/01/01 05:14:33;;;;;;;2.03;1.33;;;13.30;99.90;;;;;;5012135;28;20034;-45
2023/01/01 05:16:59;;;;;;;8.57;1.45;;;13.30;99.90;;;;;;5012042;28;20026;-45
2023/01/01 05:19:24;;;;;;;2.22;1.10;;;13.20;99.90;;;;;;5011063;28;20049;-61
2023/01/01 05:21:50;;;;;;;3.50;1.65;;;13.30;99.90;;;;;;5008618;28;20474;-44
2023/01/01 05:24:16;;;;;;;2.17;0.60;;;13.30;99.90;;;;;;5012953;28;20109;-44
2023/01/01 05:26:43;;;;;;;3.72;1.60;;;13.30;99.90;;;;;;5011425;28;20030;-46
2023/01/01 05:29:10;;;;;;;7.18;1.52;;;13.30;99.90;;;;;;5013626;28;20025;-44
2023/01/01 05:31:36;;;;;;;4.25;1.10;;;13.20;99.90;;;;;;5011191;28;20956;-44
2023/01/01 05:34:02;;;;;;;4.30;1.40;;;13.30;99.90;;;;;;5013265;28;20117;-44
2023/01/01 05:36:37;;;;;;;8.48;1.00;;;13.30;99.90;;;;;;5012682;28;20072;-45
2023/01/01 05:39:07;;;;;;;1.35;0.90;;;13.30;99.90;;;;;;5013360;28;20498;-34
2023/01/01 05:41:36;;;;;;;5.47;1.15;;;13.30;99.90;;;;;;5011902;28;20065;-38
2023/01/01 05:44:03;;;;;;;2.97;1.10;;;13.30;99.90;;;;;;5003090;28;20046;-34
2023/01/01 05:46:29;;;;;;;5.65;0.98;;;13.30;99.90;;;;;;5000683;28;20100;-46
2023/01/01 05:48:55;;;;;;;6.30;0.98;;;13.20;99.90;;;;;;5012850;28;20053;-41
2023/01/01 05:51:23;;;;;;;5.43;1.27;;;13.20;99.90;;;;;;5012274;28;20444;-40
2023/01/01 05:53:49;;;;;;;4.60;0.93;;;13.20;99.90;;;;;;5013346;28;20117;-37
2023/01/01 05:56:16;;;;;;;4.35;1.00;;;13.10;99.90;;;;;;5012953;28;20037;-40
2023/01/01 05:58:42;;;;;;;11.45;1.08;;;13.10;99.90;;;;;;5012860;28;20038;-37
2023/01/01 06:01:29;;;;;;;1.98;0.50;;;13.10;99.90;;;;;;5011286;28;20030;-41
2023/01/01 06:03:56;;;;;;;4.03;0.68;;;13.20;99.90;;;;;;5012107;28;20032;-40
2023/01/01 06:06:27;;;;;;;1.77;0.80;;;13.10;99.90;;;;;;5012550;28;20505;-43
2023/01/01 06:08:58;;;;;;;2.45;0.50;;;13.10;99.90;;;;;;5013221;28;20113;-40
2023/01/01 06:11:24;;;;;;;2.53;0.73;;;13.10;99.90;;;;;;5012906;28;20030;-38
2023/01/01 06:13:54;;;;;;;10.18;1.67;;;13.10;99.90;;;;;;5012334;28;20505;-39
2023/01/01 06:16:20;;;;;;;4.68;0.95;;;13.00;99.90;;;;;;5011054;28;20034;-36
2023/01/01 06:18:46;;;;;;;3.67;0.73;;;13.00;99.90;;;;;;5011607;28;20510;-39
2023/01/01 06:21:17;;;;;;;2.85;0.90;;;12.90;99.90;;;;;;5012788;28;20069;-37
2023/01/01 06:23:43;;;;;;;4.05;0.70;;;13.00;99.90;;;;;;5010918;28;20481;-40
2023/01/01 06:26:15;;;;;;;3.40;1.48;;;13.00;99.90;;;;;;5011935;28;20505;-37
2023/01/01 06:28:42;;;;;;;1.42;0.75;;;13.00;99.90;;;;;;5012802;28;20561;-43
2023/01/01 06:31:10;;;;;;;3.28;0.50;;;13.00;99.90;;;;;;5014806;28;20474;-38
2023/01/01 06:33:37;;;;;;;1.25;0.52;;;13.00;99.90;;;;;;5015758;28;20513;-42
2023/01/01 06:36:06;;;;;;;2.67;1.52;;;12.90;99.90;;;;;;5005411;28;20043;-38
2023/01/01 06:38:33;;;;;;;5.65;1.50;;;12.90;99.90;;;;;;4996674;28;20394;-39
2023/01/01 06:41:01;;;;;;;5.45;0.55;;;12.90;99.90;;;;;;5011936;28;20022;-39
2023/01/01 06:43:28;;;;;;;7.07;1.30;;;12.90;99.90;;;;;;5008281;28;20026;-52
2023/01/01 06:46:15;;;;;;;4.20;0.55;;;12.90;99.90;;;;;;5014371;28;20068;-40
2023/01/01 06:48:41;;;;;;;3.95;0.60;;;12.80;99.90;;;;;;5014380;28;20049;-42
2023/01/01 06:51:08;;;;;;;4.38;0.68;;;12.80;99.90;;;;;;5010220;28;20386;-67
2023/01/01 06:53:34;;;;;;;5.32;0.80;;;12.80;99.90;;;;;;5015637;28;20489;-43
2023/01/01 06:56:00;;;;;;;3.35;0.40;;;12.80;99.90;;;;;;5015274;28;20473;-42
2023/01/01 06:58:26;;;;;;;2.03;0.70;;;12.70;99.90;;;;;;5015182;28;20021;-41
2023/01/01 07:00:51;;;;;;;2.45;0.77;;;12.70;99.90;;;;;;5012369;28;20029;-41
2023/01/01 07:03:17;;;;;;;2.97;0.50;;;12.70;99.90;;;;;;5014738;28;20018;-43
2023/01/01 07:05:42;;;;;;;2.47;0.82;;;12.70;99.90;;;;;;5006071;28;20101;-38
2023/01/01 07:08:08;;;;;;;2.75;0.68;;;12.70;99.90;;;;;;5013877;28;20493;-47
2023/01/01 07:10:34;;;;;;;6.82;0.70;;;12.60;99.90;;;;;;5005886;28;20057;-44
2023/01/01 07:12:59;;;;;;;3.80;0.80;;;12.60;99.90;;;;;;5003574;28;20109;-43
2023/01/01 07:15:26;;;;;;;9.75;1.00;;;12.60;99.90;;;;;;5001298;28;20015;-44
2023/01/01 07:17:51;;;;;;;8.27;2.10;;;12.60;99.90;;;;;;5006090;28;20498;-43
2023/01/01 07:20:17;;;;;;;5.82;0.93;;;12.60;99.90;;;;;;5008388;28;20154;-43
2023/01/01 07:22:43;;;;;;;0.95;0.50;;;12.50;99.90;;;;;;5009993;28;20025;-46
2023/01/01 07:25:12;;;;;;;3.47;1.05;;;12.60;99.90;;;;;;5000170;28;21459;-40
2023/01/01 07:27:38;;;;;;;4.38;0.95;;;12.50;99.90;;;;;;5013929;28;20390;-45
2023/01/01 07:30:04;;;;;;;4.20;0.40;;;12.40;99.90;;;;;;5012500;28;20022;-44
2023/01/01 07:32:30;;;;;;;3.85;1.25;;;12.40;99.90;;;;;;5013784;28;20076;-44
2023/01/01 07:34:55;;;;;;;3.63;0.95;;;12.50;99.90;;;;;;5015398;28;20033;-42
2023/01/01 07:37:25;;;;;;;1.75;0.43;;;12.50;99.90;;;;;;5009953;28;20033;-55
2023/01/01 07:39:50;;;;;;;3.72;0.68;;;12.40;99.90;;;;;;5015170;28;20022;-47
2023/01/01 07:42:16;;;;;;;3.92;0.28;;;12.40;99.90;;;;;;5014074;28;20057;-42
2023/01/01 07:44:42;;;;;;;5.93;1.25;;;12.30;99.90;;;;;;5008286;28;20497;-47
2023/01/01 07:47:23;;;;;;;3.58;0.50;;;12.30;99.90;;;;;;5014485;28;20022;-68
2023/01/01 07:49:49;;;;;;;9.90;1.42;;;12.30;99.90;;;;;;5014104;28;20474;-40
2023/01/01 07:52:15;;;;;;;4.97;1.40;;;12.30;99.90;;;;;;5008673;28;20034;-61
2023/01/01 07:54:40;;;;;;;7.63;1.08;;;12.20;99.90;;;;;;5014929;28;20474;-44
2023/01/01 07:57:06;;;;;;;11.82;1.23;;;12.20;99.90;;;;;;5014437;28;20386;-39
2023/01/01 07:59:32;;;;;;;3.47;0.60;;;12.10;99.90;;;;;;5014598;28;20033;-34
2023/01/01 08:01:57;;;;;;;6.13;1.48;;;12.10;99.90;;;;;;5013854;28;20478;-37
2023/01/01 08:04:25;;;;;;;5.07;1.02;;;12.00;99.90;;;;;;5013965;28;20077;-35
2023/01/01 08:06:52;;;;;;;11.23;1.42;;;12.00;99.90;;;;;;5013464;28;20022;-39
2023/01/01 08:09:18;;;;;;;5.28;0.60;;;12.00;99.90;;;;;;5009607;28;20076;-40
2023/01/01 08:11:44;;;;;;;8.93;1.88;;;11.90;99.90;;;;;;5012511;28;20065;-43
2023/01/01 08:14:10;;;;;;;6.60;0.70;;;11.90;99.90;;;;;;5012731;28;20482;-39
2023/01/01 08:16:35;;;;;;;10.00;0.93;;;11.90;99.90;;;;;;5013646;28;20109;-37
2023/01/01 08:19:01;;;;;;;5.82;1.00;;;11.90;99.90;;;;;;5013414;28;20219;-38
2023/01/01 08:21:26;;;;;;;15.88;4.25;;;11.80;99.90;;;;;;5010974;28;20462;-40
2023/01/01 08:23:52;;;;;;;7.40;0.90;;;11.80;99.90;;;;;;5013619;28;20110;-44
2023/01/01 08:26:33;;;;;;;3.95;0.40;;;11.90;99.90;;;;;;5012632;28;20471;-40
2023/01/01 08:29:02;;;;;;;12.65;1.00;;;11.90;99.90;;;;;;5013138;28;20040;-43
2023/01/01 08:31:27;;;;;;;2.72;0.63;;;11.90;99.90;;;;;;5011813;28;20032;-39
2023/01/01 08:33:53;;;;;;;5.25;0.60;;;12.00;99.90;;;;;;5008491;28;20627;-45
2023/01/01 08:36:19;;;;;;;6.53;0.65;;;11.90;99.90;;;;;;5012863;28;20021;-43
2023/01/01 08:38:45;;;;;;;4.43;0.75;;;11.90;99.90;;;;;;5013640;28;20032;-46
2023/01/01 08:41:11;;;;;;;5.78;1.08;;;11.90;99.90;;;;;;5013481;28;20426;-37
2023/01/01 08:43:37;;;;;;;7.53;0.63;;;11.90;99.90;;;;;;5010715;28;20056;-42
2023/01/01 08:46:02;;;;;;;6.35;1.00;;;11.90;99.90;;;;;;5013542;28;20112;-46
2023/01/01 08:48:28;;;;;;;4.90;0.75;;;11.90;99.90;;;;;;5009041;28;20033;-43
2023/01/01 08:50:55;;;;;;;8.85;0.98;;;12.00;99.90;;;;;;5011389;28;20478;-46
2023/01/01 08:53:21;;;;;;;7.95;1.05;;;12.00;99.90;;;;;;5012434;28;20077;-48
2023/01/01 08:56:06;;;;;;;3.42;0.93;;;11.90;99.90;;;;;;5013992;28;20419;-48
2023/01/01 08:58:37;;;;;;;4.20;0.80;;;12.00;99.90;;;;;;5012859;28;20030;-39
2023/01/01 09:01:03;;;;;;;1.85;1.17;;;12.00;99.90;;;;;;5012292;28;20053;-51
2023/01/01 09:03:28;;;;;;;10.52;1.08;;;12.00;99.90;;;;;;5012478;28;20101;-43
2023/01/01 09:05:54;;;;;;;3.67;0.90;;;12.00;99.90;;;;;;5012013;28;20052;-46
2023/01/01 09:08:20;;;;;;;5.80;1.38;;;12.00;99.90;;;;;;5013181;28;20034;-41
2023/01/01 09:10:46;;;;;;;5.88;0.80;;;12.10;99.90;;;;;;5012807;28;20493;-46
2023/01/01 09:13:14;;;;;;;7.07;1.70;;;12.10;99.90;;;;;;5011882;28;20026;-44
2023/01/01 09:15:45;;;;;;;6.55;1.58;;;12.20;99.90;;;;;;5010999;28;20022;-49
2023/01/01 09:18:11;;;;;;;9.63;1.10;;;12.20;99.90;;;;;;5011340;28;20037;-47
2023/01/01 09:20:37;;;;;;;4.05;1.05;;;12.20;99.90;;;;;;5011329;28;20042;-44
2023/01/01 09:23:04;;;;;;;6.45;1.15;;;12.20;99.90;;;;;;5013457;28;20032;-38
2023/01/01 09:25:30;;;;;;;12.85;1.92;;;12.20;99.90;;;;;;5010816;28;20021;-40
2023/01/01 09:28:00;;;;;;;7.13;0.80;;;12.30;99.90;;;;;;5012575;28;20104;-37
2023/01/01 09:30:26;;;;;;;7.68;1.20;;;12.30;99.90;;;;;;5010874;28;20636;-41
2023/01/01 09:32:51;;;;;;;7.68;1.38;;;12.40;99.90;;;;;;5012763;28;20129;-39
2023/01/01 09:35:17;;;;;;;4.97;0.93;;;12.40;99.90;;;;;;5012096;28;20041;-44
2023/01/01 09:37:43;;;;;;;4.88;0.93;;;12.50;99.90;;;;;;5009796;28;20085;-41
2023/01/01 09:40:36;;;;;;;6.32;1.25;;;12.60;99.90;;;;;;5013422;28;20038;-40
2023/01/01 09:43:09;;;;;;;6.15;1.10;;;12.60;99.90;;;;;;5011769;28;20112;-35
2023/01/01 09:45:48;;;;;;;2.67;0.65;;;12.70;99.90;;;;;;5011333;28;20458;-42
2023/01/01 09:48:15;;;;;;;8.15;1.20;;;12.70;99.90;;;;;;5011907;28;20450;-39
2023/01/01 09:50:44;;;;;;;4.40;1.05;;;12.80;99.90;;;;;;5011984;28;20501;-38
2023/01/01 09:53:16;;;;;;;6.53;1.00;;;13.00;99.90;;;;;;5007746;28;20022;-41
2023/01/01 09:55:56;;;;;;;9.45;1.35;;;13.00;99.90;;;;;;5000913;28;20057;-37
2023/01/01 09:58:26;;;;;;;11.43;1.60;;;13.10;99.90;;;;;;5011714;28;20022;-37
2023/01/01 10:00:54;;;;;;;8.85;1.55;;;13.00;99.90;;;;;;5011230;28;20025;-40
2023/01/01 10:03:33;;;;;;;11.32;1.42;;;13.00;99.90;;;;;;5013213;28;20479;-41
2023/01/01 10:06:22;;;;;;;3.60;1.35;;;13.00;99.90;;;;;;5015629;28;20029;-38
2023/01/01 10:09:25;;;;;;;8.57;0.90;;;13.10;99.90;;;;;;5013709;28;20032;-40
2023/01/01 10:12:02;;;;;;;5.35;1.55;;;13.20;99.90;;;;;;5007832;28;20036;-39
2023/01/01 10:14:39;;;;;;;7.22;1.77;;;13.20;99.90;;;;;;5016260;28;20057;-37
2023/01/01 10:17:18;;;;;;;5.15;0.63;;;13.20;99.90;;;;;;5013631;28;20096;-41
2023/01/01 10:19:51;;;;;;;7.53;1.05;;;13.20;99.90;;;;;;5014993;28;20049;-47
2023/01/01 10:22:32;;;;;;;5.13;1.25;;;13.10;99.90;;;;;;5015379;28;20500;-48
2023/01/01 10:25:17;;;;;;;5.82;1.63;;;13.10;99.90;;;;;;5012466;28;20018;-47
2023/01/01 10:27:59;;;;;;;10.60;1.92;;;13.00;99.90;;;;;;5010477;28;20032;-43
2023/01/01 10:30:26;;;;;;;10.68;1.75;;;13.00;99.90;;;;;;5003500;28;20109;-45
2023/01/01 10:32:53;;;;;;;11.32;1.33;;;12.90;99.90;;;;;;5015862;28;20026;-46
2023/01/01 10:35:23;;;;;;;5.30;0.95;;;13.00;99.90;;;;;;5014095;28;20033;-45
2023/01/01 10:37:51;;;;;;;12.93;2.22;;;13.00;99.90;;;;;;4996126;28;20042;-45
2023/01/01 10:40:20;;;;;;;10.18;1.85;;;13.10;99.90;;;;;;4997064;28;20042;-45
2023/01/01 10:42:51;;;;;;;11.32;1.23;;;13.20;99.90;;;;;;4998100;28;20444;-49
2023/01/01 10:45:27;;;;;;;9.63;0.90;;;13.10;99.90;;;;;;5015183;28;20026;-43
2023/01/01 10:48:15;;;;;;;7.13;1.48;;;13.20;99.90;;;;;;5014434;28;20029;-45
2023/01/01 10:50:43;;;;;;;4.03;0.70;;;13.20;99.90;;;;;;5014202;28;20038;-47
2023/01/01 10:53:24;;;;;;;6.40;1.88;;;13.30;99.90;;;;;;5014235;28;20026;-47
2023/01/01 10:55:57;;;;;;;12.35;1.58;;;13.30;99.90;;;;;;5011716;28;20536;-44
2023/01/01 10:58:33;;;;;;;9.80;2.10;;;13.30;99.90;;;;;;5013683;28;20083;-44
2023/01/01 11:01:01;;;;;;;17.83;1.30;;;13.20;99.90;;;;;;5015097;28;20386;-43
2023/01/01 11:06:21;;;;;;;10.57;1.45;;;13.30;99.90;;;;;;5009567;28;20088;-39
2023/01/01 11:08:50;;;;;;;7.47;1.23;;;13.40;99.90;;;;;;5013378;28;20096;-39
2023/01/01 11:11:23;;;;;;;4.97;1.17;;;13.40;99.90;;;;;;5012155;28;20577;-45
2023/01/01 11:13:51;;;;;;;8.90;1.83;;;13.40;99.90;;;;;;5014649;28;20041;-41
2023/01/01 11:16:16;;;;;;;;;;;13.50;99.90;;;;;;5013459;28;20037;-39
2023/01/01 11:18:42;;;;;;;3.83;0.90;;;13.50;99.90;;;;;;5011433;28;19917;-48
2023/01/01 11:21:08;;;;;;;7.32;1.58;;;13.50;99.90;;;;;;5015572;28;20386;-38
2023/01/01 11:23:36;;;;;;;8.20;1.30;;;13.50;99.90;;;;;;5011514;28;20026;-34
2023/01/01 11:26:19;;;;;;;4.68;0.93;;;13.40;99.90;;;;;;5014490;28;20041;-36
2023/01/01 11:29:04;;;;;;;3.05;1.05;;;13.40;99.90;;;;;;5013863;28;20033;-37
2023/01/01 11:31:37;;;;;;;8.40;1.67;;;13.40;99.90;;;;;;5007897;28;20079;-36
2023/01/01 11:34:24;;;;;;;6.88;1.40;;;13.40;99.90;;;;;;5010161;28;20037;-39
2023/01/01 11:36:50;;;;;;;6.97;1.13;;;13.30;99.90;;;;;;5011939;28;20026;-36
2023/01/01 11:39:25;;;;;;;7.03;1.83;;;13.30;99.90;;;;;;5014855;28;20634;-39
2023/01/01 11:41:53;;;;;;;8.93;1.48;;;13.40;99.90;;;;;;5013659;28;20541;-40
2023/01/01 11:44:28;;;;;;;8.65;1.27;;;13.40;99.90;;;;;;5012953;28;20017;-38
2023/01/01 11:46:53;;;;;;;4.88;1.80;;;13.50;99.90;;;;;;5010133;28;20068;-39
2023/01/01 11:49:26;;;;;;;10.20;1.50;;;13.50;99.90;;;;;;5013705;28;20029;-40
2023/01/01 11:51:52;;;;;;;6.70;1.30;;;13.50;99.90;;;;;;5013002;28;20538;-39
2023/01/01 11:54:34;;;;;;;8.25;1.58;;;13.50;99.90;;;;;;5009721;28;20065;-39
2023/01/01 11:57:14;;;;;;;15.38;1.73;;;13.40;99.90;;;;;;5004858;28;20409;-38
2023/01/01 11:59:51;;;;;;;10.35;2.08;;;13.40;99.90;;;;;;5012784;28;20084;-40
2023/01/01 12:02:39;;;;;;;8.30;1.95;;;13.30;99.90;;;;;;5007062;28;20032;-39
2023/01/01 12:05:13;;;;;;;8.48;1.65;;;13.30;99.90;;;;;;5004050;28;20014;-38
2023/01/01 12:07:41;;;;;;;8.93;1.48;;;13.30;99.90;;;;;;5006548;28;20026;-38
2023/01/01 12:10:24;;;;;;;17.23;2.15;;;13.30;99.90;;;;;;5005707;28;20750;-37
2023/01/01 12:12:56;;;;;;;6.53;2.05;;;13.40;99.90;;;;;;5002450;28;20030;-38
2023/01/01 12:15:37;;;;;;;6.88;1.70;;;13.40;99.90;;;;;;5011228;28;20062;-35
2023/01/01 12:18:23;;;;;;;6.88;1.70;;;13.40;99.90;;;;;;5013155;28;20121;-34
2023/01/01 12:21:02;;;;;;;10.00;1.52;;;13.40;99.90;;;;;;4995193;28;20053;-35
2023/01/01 12:23:30;;;;;;;10.18;1.70;;;13.50;99.90;;;;;;5012975;28;20026;-39
2023/01/01 12:26:05;;;;;;;4.25;1.50;;;13.50;99.90;;;;;;5012988;28;20044;-40
2023/01/01 12:28:40;;;;;;;6.18;1.85;;;13.60;99.90;;;;;;5013232;28;20060;-36
2023/01/01 12:31:24;;;;;;;6.70;1.60;;;13.70;99.90;;;;;;5012705;28;20037;-38
2023/01/01 12:34:29;;;;;;;8.57;1.52;;;13.60;99.90;;;;;;5012036;28;20037;-41
2023/01/01 12:37:24;;;;;;;4.43;1.67;;;13.70;99.90;;;;;;5010898;28;20022;-42
2023/01/01 12:40:06;;;;;;;6.70;1.48;;;13.70;99.90;;;;;;5008761;28;20034;-41
2023/01/01 12:42:57;;;;;;;10.43;1.98;;;13.70;99.90;;;;;;5011805;28;20022;-39
2023/01/01 12:45:32;;;;;;;8.32;2.30;;;13.70;99.90;;;;;;5007902;28;20537;-36
2023/01/01 12:48:09;;;;;;;14.65;2.35;;;13.70;99.90;;;;;;5005593;28;20022;-37
2023/01/01 12:51:15;;;;;;;8.27;1.35;;;13.70;99.90;;;;;;5007283;28;20034;-44
2023/01/01 12:54:31;;;;;;;11.57;3.20;;;13.70;99.90;;;;;;4996986;28;20095;-40
2023/01/01 12:57:09;;;;;;;10.25;1.65;;;13.70;99.90;;;;;;5002191;28;20028;-40
2023/01/01 12:59:39;;;;;;;7.95;1.13;;;13.70;99.90;;;;;;5001066;28;20490;-39
2023/01/01 13:02:24;;;;;;;10.65;1.55;;;13.70;99.90;;;;;;5000355;28;20505;-39
2023/01/01 13:04:58;;;;;;;6.43;1.50;;;13.60;99.90;;;;;;5000621;28;20022;-42
2023/01/01 13:07:37;;;;;;;7.78;1.58;;;13.60;99.90;;;;;;5006768;28;20532;-38
2023/01/01 13:10:18;;;;;;;9.48;1.13;;;13.60;99.90;;;;;;5004466;28;20038;-38